Time;durP1;ratioP1;P1;durP2;ratioP2;P2;SDS_P1;SDS_P2;PMS_P1;PMS_P2;Temp;Humidity;BMP_temperature;BMP_pressure;BME280_temperature;BME280_humidity;BME280_pressure;Samples;Min_cycle;Max_cycle;Signal;HPM_P1;HPM_P2
2021/12/16 00:01:46;;;;;;;4.10;1.70;;;;;;;;;;5028283;28;20050;-66
2021/12/16 00:09:54;;;;;;;6.32;1.90;;;;;;;;;;4950593;29;20055;-69
2021/12/16 00:29:41;;;;;;;6.03;2.15;;;;;;;;;;4894205;29;20052;-69
2021/12/16 00:34:35;;;;;;;6.90;1.75;;;;;;;;;;4896102;29;20059;-66
2021/12/16 00:37:06;;;;;;;3.83;1.83;;;;;;;;;;4876400;29;20060;-66
2021/12/16 00:39:37;;;;;;;6.57;1.85;;;;;;;;;;4893788;29;20052;-69
2021/12/16 00:42:16;;;;;;;6.50;2.00;;;;;;;;;;4873844;29;20041;-67
2021/12/16 00:47:46;;;;;;;4.38;1.83;;;;;;;;;;4905807;29;20056;-67
2021/12/16 00:54:07;;;;;;;6.68;1.98;;;;;;;;;;4934483;29;20055;-67
2021/12/16 00:56:05;;;;;;;4.10;2.00;;;;;;;;;;4950448;28;20067;-67
2021/12/16 00:58:45;;;;;;;5.63;1.95;;;;;;;;;;4910505;29;20059;-67
2021/12/16 01:35:32;;;;;;;5.05;2.15;;;;;;;;;;4856676;29;20077;-66
2021/12/16 01:49:31;;;;;;;5.65;2.15;;;;;;;;;;4842713;29;20077;-69
2021/12/16 01:55:17;;;;;;;7.10;2.20;;;;;;;;;;4818778;29;20440;-69
2021/12/16 01:57:54;;;;;;;3.22;1.73;;;;;;;;;;4800303;29;20055;-67
2021/12/16 02:00:46;;;;;;;6.68;2.08;;;;;;;;;;4800876;29;20084;-67
2021/12/16 02:03:24;;;;;;;3.67;2.38;;;;;;;;;;4764236;30;20145;-67
2021/12/16 02:06:09;;;;;;;6.60;1.75;;;;;;;;;;4769498;30;20072;-67
2021/12/16 02:08:40;;;;;;;6.82;2.00;;;;;;;;;;4808760;29;20054;-67
2021/12/16 02:11:30;;;;;;;4.97;2.13;;;;;;;;;;4827050;29;20058;-66
2021/12/16 02:39:13;;;;;;;5.60;2.00;;;;;;;;;;4857958;29;20057;-66
2021/12/16 02:41:47;;;;;;;10.27;2.20;;;;;;;;;;4854476;29;20053;-65
2021/12/16 02:50:17;;;;;;;8.43;2.53;;;;;;;;;;4804818;29;20078;-69
2021/12/16 02:52:49;;;;;;;8.30;2.60;;;;;;;;;;4808177;29;20524;-66
2021/12/16 02:55:21;;;;;;;4.03;2.47;;;;;;;;;;4803018;29;20059;-66
2021/12/16 02:58:00;;;;;;;4.60;2.55;;;;;;;;;;4803455;29;20449;-69
2021/12/16 03:00:36;;;;;;;5.47;2.30;;;;;;;;;;4828724;29;20069;-66
2021/12/16 03:03:08;;;;;;;5.63;2.60;;;;;;;;;;4838921;29;20070;-67
2021/12/16 03:05:38;;;;;;;4.45;2.25;;;;;;;;;;4839624;29;20499;-68
2021/12/16 03:08:08;;;;;;;4.95;2.60;;;;;;;;;;4829325;29;20069;-67
2021/12/16 03:13:33;;;;;;;4.88;2.60;;;;;;;;;;4835662;29;20539;-67
2021/12/16 03:16:22;;;;;;;4.85;2.78;;;;;;;;;;4825233;29;20067;-67
2021/12/16 03:19:11;;;;;;;6.80;3.15;;;;;;;;;;4853079;29;20057;-67
2021/12/16 03:21:51;;;;;;;4.22;2.50;;;;;;;;;;4919545;28;20078;-69
2021/12/16 03:24:59;;;;;;;5.25;2.47;;;;;;;;;;4970362;28;20051;-71
2021/12/16 03:27:48;;;;;;;7.93;2.55;;;;;;;;;;4982756;28;20062;-67
2021/12/16 03:30:41;;;;;;;5.38;2.75;;;;;;;;;;4976071;28;20598;-67
2021/12/16 03:39:01;;;;;;;12.77;6.50;;;;;;;;;;4951137;29;20400;-68
2021/12/16 03:41:32;;;;;;;8.13;3.35;;;;;;;;;;4898208;29;20036;-67
2021/12/16 03:44:09;;;;;;;11.95;3.35;;;;;;;;;;4895814;29;20072;-67
2021/12/16 03:46:49;;;;;;;11.75;2.70;;;;;;;;;;4858896;29;20108;-67
2021/12/16 03:49:24;;;;;;;4.25;2.53;;;;;;;;;;4860179;29;20202;-71
2021/12/16 03:52:06;;;;;;;5.20;2.75;;;;;;;;;;4869558;29;20049;-69
2021/12/16 03:54:49;;;;;;;4.13;2.55;;;;;;;;;;4857118;29;20631;-67
2021/12/16 03:57:25;;;;;;;5.72;2.40;;;;;;;;;;4838829;29;20185;-67
2021/12/16 03:59:57;;;;;;;5.40;3.00;;;;;;;;;;4839185;29;20062;-67
2021/12/16 04:03:00;;;;;;;6.93;2.90;;;;;;;;;;4828581;29;20058;-68
2021/12/16 04:05:36;;;;;;;4.78;2.67;;;;;;;;;;4854587;29;20485;-77
2021/12/16 04:08:09;;;;;;;5.85;3.22;;;;;;;;;;4856879;29;20517;-68
2021/12/16 04:11:19;;;;;;;8.95;3.08;;;;;;;;;;4857139;29;20062;-68
2021/12/16 04:14:14;;;;;;;11.18;3.53;;;;;;;;;;4846298;29;20053;-69
2021/12/16 04:16:51;;;;;;;7.40;3.05;;;;;;;;;;4853641;29;20427;-68
2021/12/16 04:19:36;;;;;;;6.22;2.70;;;;;;;;;;4881213;29;20064;-71
2021/12/16 04:22:16;;;;;;;8.40;3.35;;;;;;;;;;4844404;29;20060;-68
2021/12/16 04:24:53;;;;;;;4.63;2.85;;;;;;;;;;4851426;29;20050;-69
2021/12/16 04:27:25;;;;;;;7.47;3.40;;;;;;;;;;4857542;29;20592;-67
2021/12/16 04:29:57;;;;;;;6.80;3.10;;;;;;;;;;4857235;29;20064;-68
2021/12/16 04:32:28;;;;;;;5.88;3.05;;;;;;;;;;4851340;29;20057;-67
2021/12/16 04:34:58;;;;;;;4.78;3.10;;;;;;;;;;4883562;29;20421;-68
2021/12/16 04:37:29;;;;;;;6.03;3.15;;;;;;;;;;4894427;29;20056;-68
2021/12/16 04:40:01;;;;;;;5.50;3.25;;;;;;;;;;4894307;29;20060;-67
2021/12/16 04:42:36;;;;;;;8.70;3.10;;;;;;;;;;4882967;29;20056;-68
2021/12/16 04:45:09;;;;;;;8.63;2.70;;;;;;;;;;4893626;29;20413;-67
2021/12/16 04:47:41;;;;;;;8.50;3.25;;;;;;;;;;4906583;29;20099;-70
2021/12/16 04:50:13;;;;;;;4.18;3.00;;;;;;;;;;4856685;29;20049;-67
2021/12/16 04:52:43;;;;;;;;;;;;;;;;;;4871671;29;20422;-74
2021/12/16 04:55:17;;;;;;;8.85;3.72;;;;;;;;;;4822888;29;19925;-68
2021/12/16 04:57:49;;;;;;;7.18;3.22;;;;;;;;;;4820124;29;20062;-69
2021/12/16 05:00:23;;;;;;;7.95;3.47;;;;;;;;;;4832869;29;20068;-68
2021/12/16 05:03:14;;;;;;;5.95;3.50;;;;;;;;;;4881153;29;20071;-69
2021/12/16 05:05:46;;;;;;;6.65;3.42;;;;;;;;;;4912391;29;20048;-68
2021/12/16 05:08:16;;;;;;;7.05;3.30;;;;;;;;;;4912374;29;20060;-70
2021/12/16 05:10:54;;;;;;;7.55;3.67;;;;;;;;;;4912488;29;20056;-67
2021/12/16 05:13:27;;;;;;;6.72;3.33;;;;;;;;;;4912224;29;20071;-68
2021/12/16 05:16:04;;;;;;;5.07;3.50;;;;;;;;;;4912435;29;20070;-67
2021/12/16 05:18:40;;;;;;;7.63;3.20;;;;;;;;;;4893293;29;20052;-68
2021/12/16 05:21:40;;;;;;;5.82;3.70;;;;;;;;;;4876885;29;20104;-68
2021/12/16 05:24:26;;;;;;;7.45;3.22;;;;;;;;;;4862065;29;20414;-68
2021/12/16 05:27:09;;;;;;;7.78;3.75;;;;;;;;;;4871583;29;20049;-69
2021/12/16 05:29:42;;;;;;;6.38;3.28;;;;;;;;;;4874543;29;20057;-68
2021/12/16 05:32:14;;;;;;;7.57;3.78;;;;;;;;;;4900668;29;20063;-69
2021/12/16 05:34:45;;;;;;;10.20;3.92;;;;;;;;;;4931101;29;20055;-70
2021/12/16 05:37:16;;;;;;;6.55;3.75;;;;;;;;;;4966063;28;20181;-67
2021/12/16 05:39:47;;;;;;;7.10;3.72;;;;;;;;;;4950646;29;20078;-68
2021/12/16 05:42:40;;;;;;;7.82;3.75;;;;;;;;;;4924369;29;20068;-68
2021/12/16 05:45:12;;;;;;;12.50;3.75;;;;;;;;;;4896857;29;20502;-67
2021/12/16 05:47:43;;;;;;;8.23;3.72;;;;;;;;;;4897096;29;20509;-68
2021/12/16 05:50:14;;;;;;;7.07;3.83;;;;;;;;;;4912150;29;20063;-68
2021/12/16 05:52:45;;;;;;;6.68;4.10;;;;;;;;;;4899286;29;20073;-68
2021/12/16 05:55:19;;;;;;;13.98;3.67;;;;;;;;;;4900495;29;20471;-68
2021/12/16 05:58:19;;;;;;;8.68;4.25;;;;;;;;;;4911418;29;20060;-69
2021/12/16 06:00:54;;;;;;;7.90;4.25;;;;;;;;;;4916443;29;20082;-67
2021/12/16 06:03:27;;;;;;;10.38;4.00;;;;;;;;;;4919764;29;20059;-68
2021/12/16 06:05:58;;;;;;;9.55;4.20;;;;;;;;;;4934989;29;20060;-67
2021/12/16 06:08:29;;;;;;;11.05;4.35;;;;;;;;;;4916372;29;20048;-73
2021/12/16 06:13:43;;;;;;;7.05;3.90;;;;;;;;;;4915633;29;20772;-68
2021/12/16 06:27:32;;;;;;;7.78;4.13;;;;;;;;;;4915190;29;20530;-68
2021/12/16 06:30:10;;;;;;;8.35;4.20;;;;;;;;;;4915805;29;20390;-67
2021/12/16 06:32:40;;;;;;;9.63;4.57;;;;;;;;;;4933890;29;20060;-68
2021/12/16 06:35:12;;;;;;;7.95;4.30;;;;;;;;;;4951916;28;20058;-68
2021/12/16 06:37:43;;;;;;;7.28;4.30;;;;;;;;;;4963347;28;20053;-68
2021/12/16 06:40:27;;;;;;;8.80;4.25;;;;;;;;;;4991867;28;20054;-67
2021/12/16 06:43:22;;;;;;;8.13;4.07;;;;;;;;;;4972109;28;20066;-68
2021/12/16 06:45:55;;;;;;;6.88;4.13;;;;;;;;;;4933305;29;20515;-69
2021/12/16 06:48:30;;;;;;;7.32;3.95;;;;;;;;;;4934299;29;20060;-68
2021/12/16 06:51:10;;;;;;;10.70;4.35;;;;;;;;;;4902141;29;20055;-69
2021/12/16 06:53:51;;;;;;;8.32;4.53;;;;;;;;;;4901956;29;20564;-69
2021/12/16 06:56:32;;;;;;;7.88;4.38;;;;;;;;;;4926736;29;20055;-68
2021/12/16 06:59:08;;;;;;;8.60;4.47;;;;;;;;;;4933241;29;20051;-69
2021/12/16 07:01:41;;;;;;;9.13;4.50;;;;;;;;;;4933502;29;20044;-69
2021/12/16 07:04:13;;;;;;;7.68;4.85;;;;;;;;;;4882274;29;20523;-67
2021/12/16 07:06:44;;;;;;;8.75;4.65;;;;;;;;;;4896050;29;20068;-67
2021/12/16 07:09:18;;;;;;;9.07;4.90;;;;;;;;;;4932444;29;20405;-68
2021/12/16 07:11:53;;;;;;;9.00;4.05;;;;;;;;;;4914589;29;20468;-68
2021/12/16 07:14:35;;;;;;;13.02;4.80;;;;;;;;;;4906870;29;20059;-67
2021/12/16 07:17:14;;;;;;;9.93;5.03;;;;;;;;;;4936817;29;20055;-68
2021/12/16 07:19:45;;;;;;;;;;;;;;;;;;4905592;29;20423;-71
2021/12/16 07:22:15;;;;;;;10.10;4.50;;;;;;;;;;4971432;28;19922;-68
2021/12/16 07:24:46;;;;;;;9.02;4.45;;;;;;;;;;4971317;28;20059;-68
2021/12/16 07:27:16;;;;;;;7.82;4.70;;;;;;;;;;4971713;28;20066;-68
2021/12/16 07:29:46;;;;;;;8.25;4.45;;;;;;;;;;4939501;28;20641;-69
2021/12/16 07:32:17;;;;;;;9.07;4.50;;;;;;;;;;4973631;28;20066;-69
2021/12/16 07:34:48;;;;;;;11.25;5.03;;;;;;;;;;4986927;28;20069;-68
2021/12/16 07:37:18;;;;;;;9.25;4.78;;;;;;;;;;4994785;28;20053;-67
2021/12/16 07:39:51;;;;;;;10.75;4.60;;;;;;;;;;4971263;28;20531;-68
2021/12/16 07:42:29;;;;;;;10.07;5.03;;;;;;;;;;4971666;28;20062;-67
2021/12/16 07:45:00;;;;;;;7.47;4.72;;;;;;;;;;4971221;28;20051;-68
2021/12/16 07:47:29;;;;;;;11.30;4.97;;;;;;;;;;4937268;29;20052;-68
2021/12/16 07:50:00;;;;;;;12.90;4.88;;;;;;;;;;4894661;29;20072;-67
2021/12/16 07:52:34;;;;;;;9.43;5.00;;;;;;;;;;4895024;29;20057;-67
2021/12/16 07:55:05;;;;;;;10.80;4.15;;;;;;;;;;4894821;29;20060;-69
2021/12/16 07:57:36;;;;;;;9.13;5.25;;;;;;;;;;4876004;29;20053;-68
2021/12/16 08:00:17;;;;;;;9.80;4.97;;;;;;;;;;4808073;29;20082;-67
2021/12/16 08:02:48;;;;;;;11.38;5.43;;;;;;;;;;4839546;29;20684;-68
2021/12/16 08:05:23;;;;;;;11.93;4.97;;;;;;;;;;4839005;29;20054;-68
2021/12/16 08:07:54;;;;;;;9.65;4.93;;;;;;;;;;4838943;29;20495;-71
2021/12/16 08:10:24;;;;;;;10.18;5.10;;;;;;;;;;4836579;29;20124;-68
2021/12/16 08:12:55;;;;;;;9.77;5.35;;;;;;;;;;4857350;29;20906;-68
2021/12/16 08:15:26;;;;;;;10.27;5.47;;;;;;;;;;4875513;29;20068;-68
2021/12/16 08:17:56;;;;;;;12.15;5.07;;;;;;;;;;4888748;29;20417;-68
2021/12/16 08:20:27;;;;;;;12.38;6.05;;;;;;;;;;4898195;29;20448;-68
2021/12/16 08:22:58;;;;;;;12.90;5.70;;;;;;;;;;4875527;29;20060;-68
2021/12/16 08:25:31;;;;;;;9.88;5.22;;;;;;;;;;4855731;29;20056;-68
2021/12/16 08:28:03;;;;;;;9.32;4.82;;;;;;;;;;4893854;29;20499;-68
2021/12/16 08:30:40;;;;;;;11.40;5.25;;;;;;;;;;4894337;29;20048;-67
2021/12/16 08:33:13;;;;;;;10.90;5.07;;;;;;;;;;4894379;29;20061;-68
2021/12/16 08:35:46;;;;;;;;;;;;;;;;;;4934280;29;20060;-70
2021/12/16 08:38:20;;;;;;;10.93;5.45;;;;;;;;;;4964744;28;19928;-68
2021/12/16 08:40:54;;;;;;;11.02;5.47;;;;;;;;;;4970484;28;20050;-68
2021/12/16 08:43:24;;;;;;;11.35;5.55;;;;;;;;;;4950840;28;20051;-68
2021/12/16 08:45:56;;;;;;;11.77;5.05;;;;;;;;;;4950865;28;20074;-70
2021/12/16 08:48:26;;;;;;;8.93;5.72;;;;;;;;;;4947080;28;20051;-68
2021/12/16 08:50:57;;;;;;;11.15;6.45;;;;;;;;;;4931931;29;20066;-69
2021/12/16 08:53:28;;;;;;;13.82;5.80;;;;;;;;;;4912295;28;20055;-68
2021/12/16 08:55:59;;;;;;;17.45;7.63;;;;;;;;;;4950930;28;20443;-68
2021/12/16 08:58:30;;;;;;;12.88;6.50;;;;;;;;;;4950885;28;20052;-75
2021/12/16 09:01:10;;;;;;;15.50;7.72;;;;;;;;;;4963428;28;20407;-67
2021/12/16 09:03:41;;;;;;;12.10;8.02;;;;;;;;;;4931629;29;20432;-69
2021/12/16 09:06:12;;;;;;;14.15;6.85;;;;;;;;;;4942618;28;20725;-68
2021/12/16 09:08:43;;;;;;;12.82;6.65;;;;;;;;;;4950843;29;20071;-68
2021/12/16 09:11:20;;;;;;;10.02;6.10;;;;;;;;;;4950757;29;20408;-70
2021/12/16 09:13:58;;;;;;;9.98;5.60;;;;;;;;;;4950866;29;20491;-68
2021/12/16 09:16:32;;;;;;;12.27;6.15;;;;;;;;;;4950954;29;20063;-68
2021/12/16 09:19:05;;;;;;;12.15;5.82;;;;;;;;;;4949485;29;20059;-69
2021/12/16 09:21:37;;;;;;;12.32;5.90;;;;;;;;;;4882892;29;20056;-68
2021/12/16 09:24:09;;;;;;;10.80;5.53;;;;;;;;;;4893594;29;20067;-69
2021/12/16 09:26:40;;;;;;;15.25;5.68;;;;;;;;;;4893668;29;20052;-68
2021/12/16 09:29:11;;;;;;;12.15;5.47;;;;;;;;;;4911802;29;20059;-67
2021/12/16 09:31:42;;;;;;;10.32;6.18;;;;;;;;;;4912292;29;20052;-68
2021/12/16 09:34:12;;;;;;;12.73;6.93;;;;;;;;;;4927538;29;20048;-69
2021/12/16 09:36:45;;;;;;;14.88;6.72;;;;;;;;;;4893173;29;20057;-70
2021/12/16 09:39:21;;;;;;;14.07;6.63;;;;;;;;;;4877486;29;20072;-67
2021/12/16 09:41:54;;;;;;;12.98;6.78;;;;;;;;;;4920766;29;20543;-68
2021/12/16 09:44:26;;;;;;;14.60;6.55;;;;;;;;;;4940066;29;20471;-69
2021/12/16 09:46:59;;;;;;;10.18;5.55;;;;;;;;;;4965539;28;20054;-69
2021/12/16 09:49:30;;;;;;;9.35;5.40;;;;;;;;;;4978217;28;20086;-67
2021/12/16 09:52:01;;;;;;;8.55;4.35;;;;;;;;;;4961094;28;20050;-68
2021/12/16 09:54:34;;;;;;;9.40;4.85;;;;;;;;;;4977595;28;20046;-68
2021/12/16 09:57:04;;;;;;;11.13;5.03;;;;;;;;;;4962167;28;20594;-76
2021/12/16 09:59:36;;;;;;;16.55;5.57;;;;;;;;;;4967563;28;20063;-67
2021/12/16 10:02:12;;;;;;;8.40;4.78;;;;;;;;;;4939505;28;20066;-68
2021/12/16 10:04:45;;;;;;;11.70;4.65;;;;;;;;;;4967519;28;20427;-67
2021/12/16 10:07:22;;;;;;;10.73;5.13;;;;;;;;;;4936552;28;20082;-70
2021/12/16 10:09:55;;;;;;;10.38;5.22;;;;;;;;;;4968068;28;20051;-72
2021/12/16 10:12:32;;;;;;;9.40;4.85;;;;;;;;;;4997708;28;20076;-68
2021/12/16 10:17:21;;;;;;;11.73;5.35;;;;;;;;;;5002949;28;20049;-69
2021/12/16 10:18:05;;;;;;;12.38;5.70;;;;;;;;;;4991383;28;20054;-69
2021/12/16 10:20:51;;;;;;;11.68;5.18;;;;;;;;;;5015101;28;20513;-69
2021/12/16 10:23:34;;;;;;;13.35;5.28;;;;;;;;;;5027189;28;20049;-69
2021/12/16 10:26:08;;;;;;;13.68;5.00;;;;;;;;;;5005058;28;20196;-67
2021/12/16 10:28:45;;;;;;;14.93;5.28;;;;;;;;;;4994116;28;20100;-67
2021/12/16 10:31:23;;;;;;;10.30;6.20;;;;;;;;;;4973143;28;20039;-70
2021/12/16 10:34:00;;;;;;;10.98;5.63;;;;;;;;;;4990897;28;20054;-72
2021/12/16 10:36:38;;;;;;;10.30;6.13;;;;;;;;;;4990128;28;20426;-67
2021/12/16 10:39:22;;;;;;;12.63;5.45;;;;;;;;;;4991455;28;20061;-66
2021/12/16 10:42:04;;;;;;;11.63;5.03;;;;;;;;;;4951619;28;20043;-67
2021/12/16 10:44:36;;;;;;;11.02;5.63;;;;;;;;;;4952010;28;20491;-67
2021/12/16 10:47:15;;;;;;;9.70;5.60;;;;;;;;;;4955594;28;20092;-66
2021/12/16 10:49:52;;;;;;;11.05;5.70;;;;;;;;;;4933841;29;20050;-67
2021/12/16 10:52:31;;;;;;;10.52;5.50;;;;;;;;;;4921422;28;20058;-66
2021/12/16 10:55:02;;;;;;;15.20;5.85;;;;;;;;;;4953013;28;20424;-65
2021/12/16 10:57:32;;;;;;;14.32;5.30;;;;;;;;;;4937053;28;20062;-66
2021/12/16 11:00:10;;;;;;;10.98;6.07;;;;;;;;;;4952964;28;20162;-67
2021/12/16 11:02:41;;;;;;;10.57;5.55;;;;;;;;;;4921261;29;20055;-71
2021/12/16 11:05:21;;;;;;;9.27;5.68;;;;;;;;;;4952916;28;20054;-67
2021/12/16 11:07:55;;;;;;;16.27;5.45;;;;;;;;;;4938548;28;20051;-69
2021/12/16 11:10:28;;;;;;;8.20;5.50;;;;;;;;;;4972172;28;20055;-69
2021/12/16 11:13:04;;;;;;;10.48;5.18;;;;;;;;;;4956386;28;20058;-66
2021/12/16 11:15:44;;;;;;;8.63;5.90;;;;;;;;;;4952282;28;20118;-66
2021/12/16 11:18:23;;;;;;;12.68;5.25;;;;;;;;;;4933223;29;20058;-66
2021/12/16 11:20:56;;;;;;;8.35;5.20;;;;;;;;;;4952724;29;20582;-67
2021/12/16 11:23:37;;;;;;;12.13;4.97;;;;;;;;;;4952675;29;20063;-66
2021/12/16 11:26:18;;;;;;;13.25;5.45;;;;;;;;;;4952656;29;20055;-66
2021/12/16 11:28:53;;;;;;;16.27;5.10;;;;;;;;;;4938800;28;20054;-68
2021/12/16 11:31:28;;;;;;;7.90;4.82;;;;;;;;;;4991122;28;20065;-66
2021/12/16 11:34:02;;;;;;;11.95;5.30;;;;;;;;;;4952148;28;20467;-65
2021/12/16 11:36:40;;;;;;;8.90;4.75;;;;;;;;;;4932784;29;20063;-67
2021/12/16 11:39:18;;;;;;;10.18;4.60;;;;;;;;;;4932983;29;20056;-68
2021/12/16 11:42:06;;;;;;;14.85;5.53;;;;;;;;;;4893975;29;20057;-66
2021/12/16 11:44:43;;;;;;;10.32;5.22;;;;;;;;;;4895340;29;20417;-66
2021/12/16 11:47:25;;;;;;;8.25;4.30;;;;;;;;;;4881638;29;20064;-65
2021/12/16 11:50:03;;;;;;;7.38;4.18;;;;;;;;;;4876534;29;20143;-66
2021/12/16 11:52:35;;;;;;;;;;;;;;;;;;4872406;29;20057;-66
2021/12/16 11:55:15;;;;;;;7.57;4.03;;;;;;;;;;4861031;29;19928;-68
2021/12/16 11:57:51;;;;;;;11.27;4.00;;;;;;;;;;4876366;29;20045;-67
2021/12/16 12:00:28;;;;;;;8.40;4.07;;;;;;;;;;4863799;29;20060;-66
2021/12/16 12:03:06;;;;;;;6.25;4.32;;;;;;;;;;4860408;29;20414;-69
2021/12/16 12:05:40;;;;;;;;;;;;;;;;;;4876483;29;20391;-71
2021/12/16 12:08:16;;;;;;;4.97;3.22;;;;;;;;;;4890752;29;20029;-66
2021/12/16 12:10:53;;;;;;;8.13;3.60;;;;;;;;;;4884232;29;20519;-65
2021/12/16 12:13:27;;;;;;;9.70;3.50;;;;;;;;;;4938871;28;20063;-66
2021/12/16 12:16:03;;;;;;;7.32;3.63;;;;;;;;;;4990057;28;20054;-69
2021/12/16 12:18:43;;;;;;;5.85;3.13;;;;;;;;;;4997780;28;20062;-66
2021/12/16 12:21:31;;;;;;;11.52;3.53;;;;;;;;;;5049421;28;20056;-67
2021/12/16 12:24:07;;;;;;;8.57;3.17;;;;;;;;;;5009543;28;20053;-66
2021/12/16 12:26:43;;;;;;;6.50;3.22;;;;;;;;;;4977054;28;20122;-65
2021/12/16 12:29:17;;;;;;;5.60;3.15;;;;;;;;;;5009352;28;20058;-65
2021/12/16 12:31:53;;;;;;;8.50;3.17;;;;;;;;;;5009666;28;20057;-69
2021/12/16 12:34:25;;;;;;;12.93;3.33;;;;;;;;;;4993709;28;20414;-66
2021/12/16 12:36:59;;;;;;;8.10;3.97;;;;;;;;;;4976986;28;20662;-65
2021/12/16 12:39:38;;;;;;;8.02;3.25;;;;;;;;;;4976400;28;20045;-65
2021/12/16 12:42:11;;;;;;;7.72;3.38;;;;;;;;;;5009391;28;20053;-65
2021/12/16 12:44:44;;;;;;;9.45;3.03;;;;;;;;;;5009318;28;20054;-65
2021/12/16 12:47:19;;;;;;;5.88;3.50;;;;;;;;;;4969934;28;20423;-68
2021/12/16 12:49:50;;;;;;;7.57;2.88;;;;;;;;;;4989596;28;20510;-66
2021/12/16 12:52:26;;;;;;;7.22;3.03;;;;;;;;;;4989426;28;20042;-65
2021/12/16 12:55:03;;;;;;;6.22;2.97;;;;;;;;;;4970379;28;20059;-68
2021/12/16 12:57:36;;;;;;;7.28;3.25;;;;;;;;;;4970314;28;20054;-66
2021/12/16 13:00:28;;;;;;;7.68;3.97;;;;;;;;;;4989247;28;20446;-65
2021/12/16 13:03:12;;;;;;;8.10;3.70;;;;;;;;;;5011836;28;20045;-65
2021/12/16 13:05:51;;;;;;;7.30;4.40;;;;;;;;;;5029045;28;20484;-65
2021/12/16 13:08:28;;;;;;;6.53;3.50;;;;;;;;;;5048262;28;20045;-65
2021/12/16 13:11:13;;;;;;;9.07;3.60;;;;;;;;;;5048557;28;20481;-65
2021/12/16 13:14:19;;;;;;;8.43;3.90;;;;;;;;;;5008858;28;20449;-65
2021/12/16 13:29:10;;;;;;;7.30;4.63;;;;;;;;;;4872971;29;20044;-70
2021/12/16 13:31:59;;;;;;;8.32;4.05;;;;;;;;;;4881992;29;20540;-67
2021/12/16 13:35:21;;;;;;;9.30;4.60;;;;;;;;;;4879365;29;20053;-68
2021/12/16 13:37:56;;;;;;;9.95;4.40;;;;;;;;;;4822089;29;20081;-67
2021/12/16 13:40:32;;;;;;;8.43;4.35;;;;;;;;;;4810822;29;20074;-66
2021/12/16 13:43:12;;;;;;;7.03;3.50;;;;;;;;;;4800256;29;20051;-65
2021/12/16 14:03:49;;;;;;;6.30;3.92;;;;;;;;;;4869502;29;20060;-67
2021/12/16 14:07:23;;;;;;;7.88;3.65;;;;;;;;;;4862362;29;20443;-66
2021/12/16 14:10:01;;;;;;;;;;;;;;;;;;4841507;29;20045;-66
2021/12/16 14:18:00;;;;;;;6.78;3.88;;;;;;;;;;4822623;29;20062;-66
2021/12/16 14:23:40;;;;;;;6.75;3.60;;;;;;;;;;4898710;29;20055;-67
2021/12/16 14:26:34;;;;;;;9.75;5.10;;;;;;;;;;4934421;29;20423;-66
2021/12/16 14:35:16;;;;;;;7.78;3.78;;;;;;;;;;4953324;29;20058;-68
2021/12/16 14:38:10;;;;;;;10.25;3.95;;;;;;;;;;4951898;28;20054;-65
2021/12/16 14:47:17;;;;;;;7.05;4.13;;;;;;;;;;4915017;29;20060;-64
2021/12/16 14:49:50;;;;;;;9.70;3.83;;;;;;;;;;4915226;29;20052;-67
2021/12/16 14:52:30;;;;;;;9.85;4.75;;;;;;;;;;4915073;29;20674;-65
2021/12/16 14:55:08;;;;;;;7.63;4.20;;;;;;;;;;4914927;29;20161;-64
2021/12/16 14:57:45;;;;;;;10.32;4.32;;;;;;;;;;4914860;29;20060;-68
2021/12/16 15:00:29;;;;;;;7.63;3.50;;;;;;;;;;4914905;29;20183;-66
2021/12/16 15:03:09;;;;;;;6.70;3.95;;;;;;;;;;4877073;29;20056;-68
2021/12/16 15:05:46;;;;;;;7.15;3.63;;;;;;;;;;4877158;29;20065;-65
2021/12/16 15:08:29;;;;;;;12.13;5.05;;;;;;;;;;4892342;29;20647;-65
2021/12/16 15:11:03;;;;;;;10.40;4.20;;;;;;;;;;4861118;29;20060;-65
2021/12/16 15:17:02;;;;;;;9.50;4.03;;;;;;;;;;4914324;29;20055;-66
2021/12/16 15:37:30;;;;;;;8.10;5.07;;;;;;;;;;4913888;29;20063;-65
2021/12/16 15:45:24;;;;;;;12.15;5.30;;;;;;;;;;4932954;29;20048;-66
2021/12/16 15:48:09;;;;;;;12.45;5.35;;;;;;;;;;4932790;29;20064;-65
2021/12/16 15:51:00;;;;;;;7.03;5.03;;;;;;;;;;4932973;29;20052;-65
2021/12/16 15:53:37;;;;;;;9.75;5.15;;;;;;;;;;4901475;29;20060;-65
2021/12/16 15:56:13;;;;;;;11.43;5.38;;;;;;;;;;4923106;29;20059;-67
2021/12/16 15:59:05;;;;;;;10.30;5.13;;;;;;;;;;4932789;29;20059;-66
2021/12/16 16:01:47;;;;;;;7.43;5.35;;;;;;;;;;4932248;29;20060;-66
2021/12/16 16:04:27;;;;;;;10.10;5.30;;;;;;;;;;4920018;29;20055;-66
2021/12/16 16:07:01;;;;;;;9.15;5.80;;;;;;;;;;4951800;29;20059;-67
2021/12/16 16:09:45;;;;;;;6.68;4.80;;;;;;;;;;4955860;28;20054;-71
2021/12/16 16:12:18;;;;;;;9.18;5.30;;;;;;;;;;5002453;28;20446;-68
2021/12/16 16:14:50;;;;;;;7.30;5.00;;;;;;;;;;5009668;28;20057;-65
2021/12/16 16:17:24;;;;;;;8.85;5.32;;;;;;;;;;5009974;28;20068;-67
2021/12/16 16:19:55;;;;;;;9.82;4.97;;;;;;;;;;4977281;28;20046;-66
2021/12/16 16:22:26;;;;;;;10.20;5.00;;;;;;;;;;4993680;28;20513;-67
2021/12/16 16:24:56;;;;;;;6.82;4.63;;;;;;;;;;5009525;28;20057;-66
2021/12/16 16:27:30;;;;;;;7.05;4.32;;;;;;;;;;5009276;28;20053;-65
2021/12/16 16:30:01;;;;;;;7.65;4.20;;;;;;;;;;5009699;28;20065;-66
2021/12/16 16:33:01;;;;;;;7.90;4.35;;;;;;;;;;5009540;28;20076;-68
2021/12/16 16:35:35;;;;;;;5.13;3.85;;;;;;;;;;5009272;28;20054;-66
2021/12/16 16:38:17;;;;;;;6.05;4.03;;;;;;;;;;5010237;28;20061;-68
2021/12/16 16:40:51;;;;;;;6.60;3.65;;;;;;;;;;4996476;28;20560;-68
2021/12/16 16:43:29;;;;;;;6.55;3.30;;;;;;;;;;5029238;28;20072;-65
2021/12/16 16:46:13;;;;;;;6.07;2.88;;;;;;;;;;4972613;28;20050;-65
2021/12/16 16:51:42;;;;;;;5.63;2.90;;;;;;;;;;4957423;28;20057;-69
2021/12/16 16:54:38;;;;;;;5.90;3.03;;;;;;;;;;4989576;28;20525;-65
2021/12/16 16:57:14;;;;;;;7.78;2.88;;;;;;;;;;4989701;28;20589;-63
2021/12/16 16:59:48;;;;;;;3.90;2.63;;;;;;;;;;4982917;28;20503;-65
2021/12/16 17:02:43;;;;;;;5.32;2.72;;;;;;;;;;4969521;28;20051;-64
2021/12/16 17:05:22;;;;;;;4.93;2.33;;;;;;;;;;4950440;29;20054;-64
2021/12/16 17:08:05;;;;;;;5.03;2.40;;;;;;;;;;4934733;29;20392;-65
2021/12/16 17:10:55;;;;;;;4.38;2.13;;;;;;;;;;4951097;29;20055;-66
2021/12/16 17:14:09;;;;;;;3.75;2.40;;;;;;;;;;4950382;28;20047;-70
2021/12/16 17:19:40;;;;;;;5.97;2.22;;;;;;;;;;4931440;29;20492;-67
2021/12/16 17:22:20;;;;;;;4.50;2.28;;;;;;;;;;4931865;29;20075;-66
2021/12/16 17:25:00;;;;;;;7.05;2.50;;;;;;;;;;4931628;29;20070;-67
2021/12/16 17:28:01;;;;;;;6.07;2.05;;;;;;;;;;4931365;29;20074;-67
2021/12/16 17:30:38;;;;;;;6.18;2.25;;;;;;;;;;4930986;29;20520;-64
2021/12/16 17:33:13;;;;;;;5.03;2.70;;;;;;;;;;4931123;29;20392;-67
2021/12/16 17:35:47;;;;;;;3.63;2.00;;;;;;;;;;4931152;29;20416;-68
2021/12/16 17:38:30;;;;;;;4.22;2.05;;;;;;;;;;4931507;29;20394;-66
2021/12/16 17:41:07;;;;;;;2.55;1.70;;;;;;;;;;4952860;29;20519;-67
2021/12/16 17:43:43;;;;;;;4.90;1.98;;;;;;;;;;4969974;28;20050;-66
2021/12/16 17:46:19;;;;;;;2.50;1.98;;;;;;;;;;4973802;28;20411;-64
2021/12/16 17:48:51;;;;;;;4.57;2.15;;;;;;;;;;4973691;28;20058;-65
2021/12/16 17:51:26;;;;;;;2.67;1.60;;;;;;;;;;4985664;28;20062;-66
2021/12/16 17:54:04;;;;;;;7.03;1.50;;;;;;;;;;5022975;28;20058;-65
2021/12/16 17:56:35;;;;;;;2.45;1.70;;;;;;;;;;5002998;28;20053;-68
2021/12/16 17:59:09;;;;;;;4.03;1.80;;;;;;;;;;5025226;28;20079;-69
2021/12/16 18:01:43;;;;;;;3.30;1.65;;;;;;;;;;5052427;28;20053;-66
2021/12/16 18:04:18;;;;;;;3.50;1.55;;;;;;;;;;5012081;28;20049;-65
2021/12/16 18:06:54;;;;;;;3.60;2.30;;;;;;;;;;4963856;28;20445;-65
2021/12/16 18:09:34;;;;;;;4.60;2.15;;;;;;;;;;4992144;28;20054;-67
2021/12/16 18:12:21;;;;;;;3.25;1.40;;;;;;;;;;4972920;28;20066;-65
2021/12/16 18:15:06;;;;;;;4.47;1.83;;;;;;;;;;4920072;29;20056;-66
2021/12/16 18:17:40;;;;;;;3.22;2.05;;;;;;;;;;4915153;29;20104;-66
2021/12/16 18:20:14;;;;;;;3.17;1.85;;;;;;;;;;4859202;29;20476;-65
2021/12/16 18:22:46;;;;;;;4.90;1.50;;;;;;;;;;4858883;29;20064;-65
2021/12/16 18:25:19;;;;;;;3.00;1.67;;;;;;;;;;4859578;29;20061;-67
2021/12/16 18:27:56;;;;;;;3.28;1.58;;;;;;;;;;4828663;29;20058;-65
2021/12/16 18:30:33;;;;;;;3.78;1.70;;;;;;;;;;4840594;29;20061;-64
2021/12/16 18:33:08;;;;;;;2.45;1.73;;;;;;;;;;4825152;29;20065;-65
2021/12/16 18:35:44;;;;;;;2.40;1.40;;;;;;;;;;4825372;29;20058;-69
2021/12/16 18:38:40;;;;;;;4.38;1.95;;;;;;;;;;4854308;29;20061;-66
2021/12/16 18:41:13;;;;;;;5.75;1.90;;;;;;;;;;4839427;29;20065;-64
2021/12/16 18:43:48;;;;;;;4.28;1.98;;;;;;;;;;4839609;29;20415;-67
2021/12/16 18:46:19;;;;;;;3.20;1.90;;;;;;;;;;4842130;29;20054;-65
2021/12/16 18:57:07;;;;;;;4.95;1.73;;;;;;;;;;4876136;29;20064;-66
2021/12/16 18:59:39;;;;;;;4.38;1.88;;;;;;;;;;4886142;29;20062;-65
2021/12/16 19:02:15;;;;;;;4.63;1.77;;;;;;;;;;4928806;29;20044;-65
2021/12/16 19:04:48;;;;;;;5.18;2.30;;;;;;;;;;4913447;29;20448;-69
2021/12/16 19:07:24;;;;;;;4.38;2.33;;;;;;;;;;4910188;29;20433;-65
2021/12/16 19:09:56;;;;;;;5.40;1.90;;;;;;;;;;4894747;29;20064;-64
2021/12/16 19:12:30;;;;;;;6.22;2.40;;;;;;;;;;4894864;29;20060;-65
2021/12/16 19:15:11;;;;;;;3.53;1.92;;;;;;;;;;4912949;29;20055;-67
2021/12/16 19:17:43;;;;;;;3.90;1.83;;;;;;;;;;4910146;29;20067;-66
2021/12/16 19:20:19;;;;;;;4.00;1.88;;;;;;;;;;4894554;29;20057;-65
2021/12/16 19:22:50;;;;;;;3.30;1.80;;;;;;;;;;4894099;29;20060;-66
2021/12/16 19:25:24;;;;;;;2.75;1.63;;;;;;;;;;4875843;29;20532;-65